Time;durP1;ratioP1;P1;durP2;ratioP2;P2;SDS_P1;SDS_P2;PMS_P1;PMS_P2;Temp;Humidity;BMP_temperature;BMP_pressure;BME280_temperature;BME280_humidity;BME280_pressure;Samples;Min_cycle;Max_cycle;Signal;HPM_P1;HPM_P2
2021/08/16 00:01:27;;;;;;;4.80;4.40;;;28.90;99.90;;;;;;5028402;28;20576;-90
2021/08/16 00:03:58;;;;;;;5.23;4.73;;;28.60;99.90;;;;;;5028931;28;20547;-91
2021/08/16 00:06:40;;;;;;;5.47;4.97;;;28.80;99.90;;;;;;5021235;28;20218;-90
2021/08/16 00:09:13;;;;;;;4.82;4.28;;;29.50;99.90;;;;;;5030045;28;20224;-91
2021/08/16 00:11:59;;;;;;;6.93;5.03;;;29.60;99.90;;;;;;5062624;28;20228;-91
2021/08/16 00:14:30;;;;;;;4.80;4.40;;;29.80;99.90;;;;;;5062114;28;20239;-91
2021/08/16 00:17:02;;;;;;;5.85;4.72;;;29.50;99.90;;;;;;5069752;28;20230;-91
2021/08/16 00:19:38;;;;;;;4.85;4.35;;;29.30;99.90;;;;;;5053147;28;20208;-92
2021/08/16 00:22:12;;;;;;;5.00;4.57;;;29.20;99.90;;;;;;5064512;28;20209;-91
2021/08/16 00:24:44;;;;;;;6.10;4.67;;;29.20;99.90;;;;;;5076095;28;20200;-91
2021/08/16 00:27:20;;;;;;;5.00;4.60;;;29.30;99.90;;;;;;5076770;28;20235;-91
2021/08/16 00:32:32;;;;;;;5.30;4.50;;;29.10;99.90;;;;;;5069827;22;20236;-92
2021/08/16 00:35:04;;;;;;;5.50;5.00;;;28.60;99.90;;;;;;5032906;28;20212;-93
2021/08/16 00:37:41;;;;;;;5.10;4.60;;;28.50;99.90;;;;;;5053501;28;20201;-93
2021/08/16 00:40:14;;;;;;;5.70;5.17;;;28.30;99.90;;;;;;5051188;28;20204;-93
2021/08/16 00:42:49;;;;;;;5.20;4.77;;;28.30;99.90;;;;;;5050517;28;20224;-93
2021/08/16 00:45:22;;;;;;;5.60;5.13;;;28.50;99.90;;;;;;5051164;28;20189;-93
2021/08/16 00:47:54;;;;;;;5.50;5.00;;;28.40;99.90;;;;;;5047487;28;20232;-93
2021/08/16 00:50:26;;;;;;;5.57;5.03;;;28.30;99.90;;;;;;5033917;28;20208;-93
2021/08/16 00:53:03;;;;;;;6.57;5.27;;;28.10;99.90;;;;;;5037802;28;20239;-93
2021/08/16 00:55:38;;;;;;;5.13;4.60;;;28.10;99.90;;;;;;5023153;28;20232;-90
2021/08/16 00:58:10;;;;;;;7.33;5.80;;;27.90;99.90;;;;;;5019044;28;20225;-90
2021/08/16 01:00:42;;;;;;;7.83;5.50;;;27.80;99.90;;;;;;5000654;28;20210;-90
2021/08/16 01:03:14;;;;;;;5.17;4.73;;;27.80;99.90;;;;;;5018895;28;20213;-91
2021/08/16 01:05:46;;;;;;;5.77;5.23;;;27.90;99.90;;;;;;5021330;28;20270;-90
2021/08/16 01:08:21;;;;;;;6.40;4.80;;;27.90;99.90;;;;;;5006772;28;20264;-91
2021/08/16 01:10:53;;;;;;;5.17;4.67;;;27.90;99.90;;;;;;5019324;28;20216;-93
2021/08/16 01:13:25;;;;;;;5.20;4.70;;;27.50;99.90;;;;;;5023807;28;20206;-93
2021/08/16 01:15:59;;;;;;;5.60;5.00;;;27.50;99.90;;;;;;5034098;28;20232;-92
2021/08/16 01:18:32;;;;;;;4.90;4.50;;;27.60;99.90;;;;;;5044892;28;20324;-91
2021/08/16 01:21:04;;;;;;;5.07;4.57;;;27.50;99.90;;;;;;5043413;28;20670;-92
2021/08/16 01:23:39;;;;;;;4.73;4.37;;;27.30;99.90;;;;;;5057334;28;20201;-90
2021/08/16 01:26:10;;;;;;;5.20;4.70;;;27.20;99.90;;;;;;5060046;28;20191;-93
2021/08/16 01:28:44;;;;;;;5.90;4.70;;;27.30;99.90;;;;;;5058951;28;20260;-94
2021/08/16 01:31:16;;;;;;;5.20;4.80;;;27.40;99.90;;;;;;5057847;28;20225;-89
2021/08/16 01:33:48;;;;;;;7.50;5.30;;;27.60;99.90;;;;;;5055750;28;20239;-91
2021/08/16 01:36:22;;;;;;;7.57;5.20;;;27.60;99.90;;;;;;5058357;28;20256;-91
2021/08/16 01:38:59;;;;;;;5.27;4.87;;;27.60;99.90;;;;;;5050695;28;20197;-91
2021/08/16 01:41:34;;;;;;;6.00;5.40;;;27.80;99.90;;;;;;5044836;28;20228;-91
2021/08/16 01:44:11;;;;;;;10.27;5.80;;;28.10;99.90;;;;;;5048968;28;20227;-90
2021/08/16 01:46:42;;;;;;;8.90;5.73;;;28.10;99.90;;;;;;5041805;28;20204;-91
2021/08/16 01:49:14;;;;;;;6.50;5.90;;;27.70;99.90;;;;;;5040674;28;20280;-91
2021/08/16 01:51:47;;;;;;;6.50;5.90;;;27.60;99.90;;;;;;5049140;28;20201;-91
2021/08/16 01:54:20;;;;;;;6.23;5.73;;;27.70;99.90;;;;;;5044064;28;20238;-91
2021/08/16 01:56:52;;;;;;;8.33;5.43;;;28.10;99.90;;;;;;5055429;28;20201;-90
2021/08/16 01:59:35;;;;;;;7.20;5.60;;;28.50;99.90;;;;;;5051919;28;20209;-91
2021/08/16 02:02:07;;;;;;;5.70;5.13;;;28.70;99.90;;;;;;5056014;28;20224;-91
2021/08/16 02:07:23;;;;;;;6.33;5.73;;;28.10;99.90;;;;;;5313745;22;20235;-91
2021/08/16 02:09:58;;;;;;;5.70;5.20;;;27.50;99.90;;;;;;5277065;22;20228;-92
2021/08/16 02:12:30;;;;;;;5.97;5.20;;;27.40;99.90;;;;;;5052690;28;20196;-92
2021/08/16 02:15:04;;;;;;;6.10;5.57;;;27.20;99.90;;;;;;5053746;28;20216;-91
2021/08/16 02:17:36;;;;;;;6.40;5.63;;;27.10;99.90;;;;;;5042502;28;20228;-92
2021/08/16 02:20:08;;;;;;;5.93;5.40;;;27.00;99.90;;;;;;5050204;28;20339;-92
2021/08/16 02:22:42;;;;;;;6.20;5.60;;;26.80;99.90;;;;;;5046124;28;20229;-93
2021/08/16 02:25:15;;;;;;;6.03;5.37;;;26.70;99.90;;;;;;5168011;22;20245;-91
2021/08/16 02:27:50;;;;;;;6.63;5.60;;;26.60;99.90;;;;;;5055432;28;20284;-93
2021/08/16 02:30:25;;;;;;;8.53;5.50;;;26.40;99.90;;;;;;5049683;28;20205;-93
2021/08/16 02:32:56;;;;;;;6.33;5.47;;;26.20;99.90;;;;;;5051598;28;20201;-92
2021/08/16 02:35:29;;;;;;;7.23;5.63;;;26.20;99.90;;;;;;5052216;28;20232;-91
2021/08/16 02:38:01;;;;;;;5.30;4.90;;;26.10;99.90;;;;;;5035475;28;20205;-92
2021/08/16 02:40:33;;;;;;;10.47;5.73;;;25.90;99.90;;;;;;5048722;28;20208;-93
2021/08/16 02:43:05;;;;;;;5.73;5.23;;;25.80;99.90;;;;;;5056267;28;20189;-93
2021/08/16 02:45:39;;;;;;;6.07;5.47;;;25.70;99.90;;;;;;5058221;28;20209;-94
2021/08/16 02:48:10;;;;;;;7.50;5.27;;;25.70;99.90;;;;;;5039052;28;20233;-92
2021/08/16 02:50:44;;;;;;;6.70;5.47;;;25.70;99.90;;;;;;5139687;22;20224;-92
2021/08/16 02:53:23;;;;;;;5.77;5.23;;;25.60;99.90;;;;;;5288445;22;20239;-93
2021/08/16 02:55:56;;;;;;;8.00;5.60;;;25.50;99.90;;;;;;5161245;22;20245;-93
2021/08/16 02:58:29;;;;;;;21.80;6.10;;;25.40;99.90;;;;;;5056610;28;20212;-92
2021/08/16 03:01:12;;;;;;;5.87;5.27;;;25.30;99.90;;;;;;5050417;28;20269;-93
2021/08/16 03:03:46;;;;;;;7.47;6.67;;;25.20;99.90;;;;;;5051210;28;20212;-92
2021/08/16 03:06:19;;;;;;;8.07;7.10;;;25.10;99.90;;;;;;5050829;28;20209;-93
2021/08/16 03:22:23;;;;;;;6.40;5.57;;;24.10;99.90;;;;;;5068861;28;20216;-93
2021/08/16 03:25:06;;;;;;;6.63;5.33;;;24.10;99.90;;;;;;5062734;28;20260;-93
2021/08/16 03:27:41;;;;;;;5.83;5.27;;;24.00;99.90;;;;;;5051030;28;20216;-93
2021/08/16 03:30:25;;;;;;;8.73;5.93;;;23.90;99.90;;;;;;5035200;28;20671;-93
2021/08/16 03:32:58;;;;;;;7.37;6.03;;;23.90;99.90;;;;;;5050812;28;20257;-93
2021/08/16 03:35:31;;;;;;;6.40;5.83;;;23.80;99.90;;;;;;5068616;28;20192;-94
2021/08/16 03:38:17;;;;;;;7.03;5.40;;;23.70;99.90;;;;;;5074490;28;20212;-93
2021/08/16 03:40:48;;;;;;;7.97;6.17;;;23.70;99.90;;;;;;5070913;28;20211;-92
2021/08/16 03:43:29;;;;;;;11.10;6.47;;;23.60;99.90;;;;;;5073960;28;20212;-92
2021/08/16 03:46:01;;;;;;;7.00;6.30;;;23.60;99.90;;;;;;5045450;28;20219;-93
2021/08/16 03:48:33;;;;;;;7.13;6.33;;;23.50;99.90;;;;;;5053547;28;20232;-90
2021/08/16 03:51:21;;;;;;;7.10;6.10;;;23.50;99.90;;;;;;5052558;28;20232;-92
2021/08/16 03:53:57;;;;;;;7.73;6.33;;;23.50;99.90;;;;;;5053760;28;20205;-92
2021/08/16 03:56:34;;;;;;;8.10;7.30;;;23.40;99.90;;;;;;5053505;28;20216;-93
2021/08/16 03:59:05;;;;;;;7.93;7.13;;;23.40;99.90;;;;;;5036430;28;20213;-93
2021/08/16 04:01:38;;;;;;;10.50;7.03;;;23.30;99.90;;;;;;5050880;28;20197;-92
2021/08/16 04:04:10;;;;;;;9.33;6.60;;;23.30;99.90;;;;;;5050300;28;20219;-91
2021/08/16 04:06:44;;;;;;;8.37;7.13;;;23.20;99.90;;;;;;5050135;28;20201;-91
2021/08/16 04:09:20;;;;;;;7.17;6.30;;;23.20;99.90;;;;;;5054502;28;20232;-92
2021/08/16 04:11:55;;;;;;;6.53;5.97;;;23.10;99.90;;;;;;5049551;28;20207;-92
2021/08/16 04:14:27;;;;;;;8.53;6.50;;;23.00;99.90;;;;;;5050539;28;20213;-92
2021/08/16 04:17:01;;;;;;;10.57;6.50;;;23.00;99.90;;;;;;5054911;28;20232;-92
2021/08/16 04:19:36;;;;;;;6.80;6.10;;;23.00;99.90;;;;;;5068204;28;20224;-92
2021/08/16 04:22:08;;;;;;;6.13;5.63;;;22.90;99.90;;;;;;5074130;28;20266;-92
2021/08/16 04:37:54;;;;;;;5.90;5.30;;;22.60;99.90;;;;;;5046871;28;20243;-93
2021/08/16 04:40:26;;;;;;;5.83;5.20;;;22.50;99.90;;;;;;5048439;28;20228;-93
2021/08/16 04:43:00;;;;;;;5.70;5.20;;;22.50;99.90;;;;;;5046689;28;20236;-93
2021/08/16 04:45:33;;;;;;;5.60;5.10;;;22.50;99.90;;;;;;5032662;28;20205;-93
2021/08/16 04:48:07;;;;;;;7.23;5.93;;;22.40;99.90;;;;;;5052641;28;20212;-93
2021/08/16 04:50:40;;;;;;;6.00;5.07;;;22.30;99.90;;;;;;5053407;28;20247;-91
2021/08/16 04:53:14;;;;;;;8.03;5.80;;;22.30;99.90;;;;;;5055514;28;20216;-92
2021/08/16 04:55:48;;;;;;;6.13;5.53;;;22.30;99.90;;;;;;5039528;28;20209;-92
2021/08/16 04:58:23;;;;;;;6.67;5.97;;;22.30;99.90;;;;;;5039730;28;20253;-91
2021/08/16 05:00:56;;;;;;;6.43;5.83;;;22.20;99.90;;;;;;5035915;28;20229;-91
2021/08/16 05:03:30;;;;;;;6.30;5.70;;;22.10;99.90;;;;;;5018941;28;20209;-92
2021/08/16 05:06:06;;;;;;;6.83;6.13;;;22.10;99.90;;;;;;5016025;28;20209;-93
2021/08/16 05:08:42;;;;;;;10.67;7.87;;;22.00;99.90;;;;;;5031028;28;20240;-91
2021/08/16 05:11:16;;;;;;;6.90;5.60;;;22.00;99.90;;;;;;5035534;28;20217;-92
2021/08/16 05:13:48;;;;;;;5.93;5.33;;;21.90;99.90;;;;;;5040856;28;20217;-89
2021/08/16 05:16:23;;;;;;;7.33;6.27;;;21.80;99.90;;;;;;5040753;28;20198;-92
2021/08/16 05:18:56;;;;;;;9.57;6.33;;;21.70;99.90;;;;;;5056763;28;20211;-92
2021/08/16 05:21:31;;;;;;;6.30;5.70;;;21.60;99.90;;;;;;5053012;28;20243;-93
2021/08/16 05:24:05;;;;;;;6.93;6.07;;;21.60;99.90;;;;;;5051462;28;20219;-89
2021/08/16 05:26:39;;;;;;;5.97;5.40;;;21.50;99.90;;;;;;5054461;28;20188;-94
2021/08/16 05:29:11;;;;;;;5.93;5.33;;;21.40;99.90;;;;;;5050049;28;20224;-92
2021/08/16 05:31:51;;;;;;;5.30;4.90;;;21.30;99.90;;;;;;5047152;28;20226;-93
2021/08/16 05:34:23;;;;;;;5.63;5.10;;;21.20;99.90;;;;;;5046835;28;20526;-92
2021/08/16 05:36:54;;;;;;;5.83;5.23;;;21.20;99.90;;;;;;5050119;28;20201;-93
2021/08/16 05:39:30;;;;;;;6.43;4.70;;;21.10;99.90;;;;;;5053066;28;20205;-92
2021/08/16 05:42:02;;;;;;;6.03;5.00;;;21.10;99.90;;;;;;5042550;28;20287;-91
2021/08/16 05:44:35;;;;;;;5.50;5.00;;;21.00;99.90;;;;;;5041203;28;20221;-92
2021/08/16 05:47:07;;;;;;;5.33;4.50;;;21.00;99.90;;;;;;5041550;28;20304;-92
2021/08/16 05:49:38;;;;;;;4.93;4.43;;;21.00;99.90;;;;;;5041485;28;20623;-92
2021/08/16 05:52:09;;;;;;;5.17;4.20;;;21.10;99.90;;;;;;5040299;28;20239;-92
2021/08/16 05:54:44;;;;;;;4.63;4.23;;;21.10;99.90;;;;;;5041814;28;20399;-93
2021/08/16 05:57:17;;;;;;;4.63;3.83;;;21.00;99.90;;;;;;5041394;28;20216;-92
2021/08/16 05:59:48;;;;;;;4.70;3.97;;;21.00;99.90;;;;;;5040316;28;20232;-91
2021/08/16 06:02:22;;;;;;;3.97;3.67;;;21.00;99.90;;;;;;5039459;28;20248;-92
2021/08/16 06:04:54;;;;;;;4.50;4.03;;;21.00;99.90;;;;;;5041121;28;20197;-92
2021/08/16 06:07:25;;;;;;;4.30;3.90;;;21.00;99.90;;;;;;5040992;28;20299;-92
2021/08/16 06:09:58;;;;;;;4.67;4.17;;;21.00;99.90;;;;;;5040923;28;20820;-92
2021/08/16 06:12:29;;;;;;;5.10;3.80;;;20.90;99.90;;;;;;5041570;28;20278;-92
2021/08/16 06:15:00;;;;;;;5.43;3.80;;;20.90;99.90;;;;;;5042793;28;20213;-91
2021/08/16 06:17:33;;;;;;;4.83;3.73;;;20.90;99.90;;;;;;5041170;28;20635;-91
2021/08/16 06:20:05;;;;;;;4.40;3.70;;;20.90;99.90;;;;;;5043552;28;20238;-91
2021/08/16 06:22:36;;;;;;;6.07;3.83;;;20.80;99.90;;;;;;5032238;28;20223;-91
2021/08/16 06:25:11;;;;;;;5.80;3.37;;;20.80;99.90;;;;;;5049622;28;20216;-92
2021/08/16 06:27:42;;;;;;;7.17;3.50;;;20.90;99.90;;;;;;5050386;28;20214;-92
2021/08/16 06:30:14;;;;;;;5.70;3.93;;;20.80;99.90;;;;;;5050174;28;20248;-92
2021/08/16 06:32:46;;;;;;;6.50;3.30;;;20.90;99.90;;;;;;5052195;28;20205;-91
2021/08/16 06:35:19;;;;;;;6.67;3.87;;;20.80;99.90;;;;;;5053541;28;20273;-92
2021/08/16 06:37:50;;;;;;;4.43;3.40;;;20.80;99.90;;;;;;5057790;28;20208;-94
2021/08/16 06:40:24;;;;;;;4.60;3.73;;;20.80;99.90;;;;;;5058436;28;20268;-95
2021/08/16 06:42:56;;;;;;;4.20;3.50;;;20.80;99.90;;;;;;5042057;28;20196;-92
2021/08/16 06:45:27;;;;;;;4.77;3.60;;;20.80;99.90;;;;;;5058801;28;20203;-91
2021/08/16 06:48:00;;;;;;;4.63;3.37;;;20.70;99.90;;;;;;5057238;28;20220;-92
2021/08/16 06:50:31;;;;;;;4.13;3.50;;;20.70;99.90;;;;;;5037616;28;20229;-92
2021/08/16 06:53:02;;;;;;;4.53;3.60;;;20.60;99.90;;;;;;5029294;28;20216;-92
2021/08/16 06:55:36;;;;;;;4.57;3.40;;;20.60;99.90;;;;;;5043218;28;20204;-92
2021/08/16 06:58:08;;;;;;;4.90;3.17;;;20.60;99.90;;;;;;5025209;28;20282;-92
2021/08/16 07:00:43;;;;;;;5.13;3.13;;;20.60;99.90;;;;;;5023324;28;20220;-93
2021/08/16 07:03:15;;;;;;;3.37;3.07;;;20.60;99.90;;;;;;5043310;28;20212;-91
2021/08/16 07:05:47;;;;;;;3.87;3.23;;;20.50;99.90;;;;;;5041853;28;20227;-91
2021/08/16 07:08:19;;;;;;;3.70;2.83;;;20.50;99.90;;;;;;5042204;28;20227;-91
2021/08/16 07:10:52;;;;;;;3.33;2.80;;;20.50;99.90;;;;;;5039044;28;20244;-92
2021/08/16 07:13:23;;;;;;;4.57;2.37;;;20.50;99.90;;;;;;5040456;28;20244;-91
2021/08/16 07:15:55;;;;;;;4.27;2.50;;;20.50;99.90;;;;;;5056067;28;20201;-92
2021/08/16 07:18:27;;;;;;;4.47;2.70;;;20.50;99.90;;;;;;5057328;28;20218;-91
2021/08/16 07:20:59;;;;;;;3.57;2.67;;;20.50;99.90;;;;;;5056479;28;20209;-91
2021/08/16 07:23:30;;;;;;;6.00;2.97;;;20.40;99.90;;;;;;5057908;28;20196;-89
2021/08/16 07:26:05;;;;;;;3.87;2.90;;;20.30;99.90;;;;;;5115650;22;20343;-91
2021/08/16 07:28:37;;;;;;;4.40;2.80;;;20.20;99.90;;;;;;5057964;28;20228;-90
2021/08/16 07:31:09;;;;;;;4.23;2.83;;;20.20;99.90;;;;;;5057293;28;20232;-90
2021/08/16 07:33:40;;;;;;;3.00;2.53;;;20.20;99.90;;;;;;5057686;28;20207;-92
2021/08/16 07:36:11;;;;;;;3.97;2.70;;;20.20;99.90;;;;;;5057359;28;20239;-91
2021/08/16 07:38:43;;;;;;;11.50;3.57;;;20.20;99.90;;;;;;5052962;28;20211;-92
2021/08/16 07:41:17;;;;;;;5.33;2.60;;;20.20;99.90;;;;;;5052188;28;20204;-91
2021/08/16 07:43:48;;;;;;;3.87;2.73;;;20.20;99.90;;;;;;5053140;28;20243;-93
2021/08/16 07:46:20;;;;;;;3.87;2.60;;;20.20;99.90;;;;;;5040694;28;20208;-93
2021/08/16 07:48:51;;;;;;;4.83;2.60;;;20.20;99.90;;;;;;5054566;28;20208;-92
2021/08/16 07:51:23;;;;;;;3.50;2.20;;;20.20;99.90;;;;;;5043534;28;20264;-93
2021/08/16 07:53:54;;;;;;;4.90;2.77;;;20.20;99.90;;;;;;5047809;28;20229;-92
2021/08/16 07:56:30;;;;;;;2.70;2.17;;;20.20;99.90;;;;;;5057048;28;20197;-92
2021/08/16 07:59:02;;;;;;;5.97;2.67;;;20.20;99.90;;;;;;5052279;28;20227;-92
2021/08/16 08:01:37;;;;;;;3.10;2.50;;;20.10;99.90;;;;;;5041052;28;20255;-91
2021/08/16 08:04:11;;;;;;;3.30;2.40;;;20.10;99.90;;;;;;5045907;28;20559;-92
2021/08/16 08:06:44;;;;;;;3.50;2.67;;;20.10;99.90;;;;;;5039838;28;20276;-92
2021/08/16 08:09:15;;;;;;;3.70;2.60;;;20.10;99.90;;;;;;5040575;28;20220;-92
2021/08/16 08:11:50;;;;;;;2.43;2.10;;;20.20;99.90;;;;;;5039463;28;20228;-92
2021/08/16 08:14:21;;;;;;;4.17;2.40;;;20.20;99.90;;;;;;5039266;28;20220;-92
2021/08/16 08:16:53;;;;;;;2.53;2.33;;;20.00;99.90;;;;;;5021281;28;20247;-92
2021/08/16 08:19:24;;;;;;;4.60;2.90;;;20.00;99.90;;;;;;5038472;28;20279;-92
2021/08/16 08:21:55;;;;;;;5.10;2.90;;;19.90;99.90;;;;;;5037734;28;20212;-92
2021/08/16 08:24:28;;;;;;;5.20;2.77;;;19.80;99.90;;;;;;5038361;28;20268;-91
2021/08/16 08:27:01;;;;;;;4.73;2.60;;;19.90;99.90;;;;;;5022361;28;20205;-92
2021/08/16 08:29:33;;;;;;;4.23;2.50;;;19.90;99.90;;;;;;5038200;28;20209;-92
2021/08/16 08:32:04;;;;;;;5.30;2.57;;;19.80;99.90;;;;;;5043902;28;20253;-91
2021/08/16 08:34:36;;;;;;;3.07;2.53;;;19.80;99.90;;;;;;5039205;28;20343;-92
2021/08/16 08:37:10;;;;;;;3.37;2.90;;;19.80;99.90;;;;;;5039406;28;20295;-92
2021/08/16 08:39:42;;;;;;;5.23;2.47;;;19.70;99.90;;;;;;5037916;28;20238;-92
2021/08/16 08:42:16;;;;;;;5.37;2.27;;;19.70;99.90;;;;;;5036921;28;20205;-92
2021/08/16 08:44:47;;;;;;;3.33;2.40;;;19.70;99.90;;;;;;5040588;28;20557;-92
2021/08/16 08:47:19;;;;;;;3.57;2.43;;;19.70;99.90;;;;;;5041459;28;20209;-92
2021/08/16 08:49:50;;;;;;;2.93;2.10;;;19.60;99.90;;;;;;5031606;28;20209;-91
2021/08/16 08:52:21;;;;;;;3.13;2.73;;;19.70;99.90;;;;;;5020616;28;20263;-92
2021/08/16 08:54:55;;;;;;;3.67;2.50;;;19.60;99.90;;;;;;5038253;28;20244;-92
2021/08/16 08:57:49;;;;;;;3.37;2.40;;;19.60;99.90;;;;;;5023486;28;20201;-92
2021/08/16 09:00:21;;;;;;;3.57;2.50;;;19.60;99.90;;;;;;5036960;28;20216;-92
2021/08/16 09:03:00;;;;;;;3.63;2.13;;;19.60;99.90;;;;;;5040529;28;20236;-92
2021/08/16 09:05:33;;;;;;;3.63;2.17;;;19.60;99.90;;;;;;5039594;28;20216;-92
2021/08/16 09:08:05;;;;;;;3.17;2.20;;;19.50;99.90;;;;;;5038646;28;20209;-91
2021/08/16 09:10:37;;;;;;;4.10;2.50;;;19.50;99.90;;;;;;5067927;22;21353;-93
2021/08/16 09:13:10;;;;;;;2.70;2.20;;;19.60;99.90;;;;;;5037946;28;20660;-92
2021/08/16 09:15:42;;;;;;;2.33;2.13;;;19.50;99.90;;;;;;5020628;28;20616;-93
2021/08/16 09:18:13;;;;;;;2.63;2.03;;;19.50;99.90;;;;;;5038292;28;20213;-92
2021/08/16 09:20:53;;;;;;;4.23;2.30;;;19.50;99.90;;;;;;5037305;28;20205;-92
2021/08/16 09:23:25;;;;;;;2.80;1.77;;;19.60;99.90;;;;;;5038096;28;20209;-92
2021/08/16 09:25:57;;;;;;;2.70;2.10;;;19.60;99.90;;;;;;5038305;28;20209;-93
2021/08/16 09:28:36;;;;;;;2.97;2.10;;;19.60;99.90;;;;;;5027156;28;20269;-92
2021/08/16 09:31:18;;;;;;;3.60;2.20;;;19.50;99.90;;;;;;5052835;28;20239;-93
2021/08/16 09:34:00;;;;;;;2.10;1.90;;;19.50;99.90;;;;;;5043523;28;20217;-92
2021/08/16 09:36:38;;;;;;;2.27;1.83;;;19.50;99.90;;;;;;5044213;28;20232;-93
2021/08/16 09:39:19;;;;;;;3.83;2.37;;;19.50;99.90;;;;;;5043893;28;20220;-93
2021/08/16 09:41:59;;;;;;;3.73;2.07;;;19.50;99.90;;;;;;5041983;28;20204;-91
2021/08/16 09:44:33;;;;;;;2.93;2.10;;;19.50;99.90;;;;;;5041425;28;20231;-90
2021/08/16 09:47:06;;;;;;;3.97;2.00;;;19.60;99.90;;;;;;5041288;28;20292;-91
2021/08/16 09:49:38;;;;;;;2.03;1.87;;;19.60;99.90;;;;;;5040741;28;20205;-93
2021/08/16 09:52:12;;;;;;;3.73;2.00;;;19.60;99.90;;;;;;5022584;28;20230;-91
2021/08/16 09:54:43;;;;;;;2.43;1.87;;;19.50;99.90;;;;;;5021049;28;20292;-93
2021/08/16 09:57:16;;;;;;;3.47;2.30;;;19.50;99.90;;;;;;5030644;28;20229;-89
2021/08/16 09:59:51;;;;;;;3.80;2.00;;;19.50;99.90;;;;;;5031328;28;20205;-90
2021/08/16 10:02:23;;;;;;;3.70;1.90;;;19.50;99.90;;;;;;5028573;28;20207;-91
2021/08/16 10:04:58;;;;;;;3.20;2.00;;;19.60;99.90;;;;;;5039604;28;20198;-90
2021/08/16 10:07:39;;;;;;;3.77;2.17;;;19.60;99.90;;;;;;5041782;28;20193;-90
2021/08/16 10:10:12;;;;;;;5.37;2.50;;;19.60;99.90;;;;;;5050226;28;20220;-91
2021/08/16 10:12:44;;;;;;;3.90;2.20;;;19.50;99.90;;;;;;5048823;28;20672;-91
2021/08/16 10:15:19;;;;;;;3.23;1.90;;;19.50;99.90;;;;;;5043986;28;20623;-90
2021/08/16 10:18:10;;;;;;;2.73;2.00;;;19.60;99.90;;;;;;5027049;28;20288;-90
2021/08/16 10:20:42;;;;;;;3.67;2.20;;;19.50;99.90;;;;;;5022847;28;20278;-91
2021/08/16 10:23:25;;;;;;;2.40;2.03;;;19.60;99.90;;;;;;5042257;28;20233;-91
2021/08/16 10:25:58;;;;;;;2.47;2.10;;;19.50;99.90;;;;;;5046717;28;20224;-90
2021/08/16 10:28:30;;;;;;;2.73;2.20;;;19.50;99.90;;;;;;5047044;28;20205;-91
2021/08/16 10:31:05;;;;;;;3.07;2.23;;;19.50;99.90;;;;;;5052792;28;20197;-91
2021/08/16 10:33:45;;;;;;;4.03;2.60;;;19.50;99.90;;;;;;5046178;28;20232;-91
2021/08/16 10:36:22;;;;;;;4.60;4.20;;;19.60;99.90;;;;;;5040918;28;20221;-92
2021/08/16 10:38:55;;;;;;;4.40;3.20;;;19.50;99.90;;;;;;5023684;28;20276;-91
2021/08/16 10:41:28;;;;;;;7.07;3.37;;;19.50;99.90;;;;;;5040255;28;20224;-92
2021/08/16 10:43:59;;;;;;;5.07;3.30;;;19.50;99.90;;;;;;5039419;28;20208;-91
2021/08/16 10:46:34;;;;;;;9.37;6.10;;;19.50;99.90;;;;;;5023997;28;20206;-91
2021/08/16 10:49:07;;;;;;;7.97;7.17;;;19.50;99.90;;;;;;5020371;28;20224;-92
2021/08/16 10:51:45;;;;;;;9.50;7.13;;;19.40;99.90;;;;;;5016985;28;20233;-92
2021/08/16 10:54:26;;;;;;;7.47;6.77;;;19.40;99.90;;;;;;5019800;28;20247;-91
2021/08/16 10:56:59;;;;;;;7.40;6.70;;;19.40;99.90;;;;;;5019302;28;20201;-90
2021/08/16 10:59:32;;;;;;;7.37;6.67;;;19.50;99.90;;;;;;5018695;28;20205;-90
2021/08/16 11:02:06;;;;;;;8.13;7.30;;;19.50;99.90;;;;;;5018739;28;20237;-91
2021/08/16 11:04:40;;;;;;;9.37;7.67;;;19.40;99.90;;;;;;5023972;28;20242;-91
2021/08/16 11:07:13;;;;;;;10.43;8.30;;;19.30;99.90;;;;;;5039191;28;20212;-90
2021/08/16 11:09:47;;;;;;;8.70;7.73;;;19.30;99.90;;;;;;5040805;28;20220;-90
2021/08/16 11:12:20;;;;;;;8.90;7.93;;;19.30;99.90;;;;;;5021671;28;20221;-90
2021/08/16 11:14:53;;;;;;;9.17;7.57;;;19.30;99.90;;;;;;5022924;28;20209;-91
2021/08/16 11:17:30;;;;;;;9.67;8.67;;;19.20;99.90;;;;;;5038891;28;20220;-90
2021/08/16 11:20:05;;;;;;;10.97;8.20;;;19.20;99.90;;;;;;5037991;28;20205;-91
2021/08/16 11:22:36;;;;;;;9.10;8.23;;;19.20;99.90;;;;;;5038672;28;20200;-90
2021/08/16 11:25:09;;;;;;;13.37;9.20;;;19.20;99.90;;;;;;5038779;28;20212;-91
2021/08/16 11:27:48;;;;;;;11.50;9.30;;;19.10;99.90;;;;;;5039125;28;20292;-91
2021/08/16 11:30:20;;;;;;;10.80;9.53;;;19.00;99.90;;;;;;5038614;28;20295;-91
2021/08/16 11:32:55;;;;;;;10.90;9.73;;;19.00;99.90;;;;;;5040049;28;20268;-91
2021/08/16 11:35:28;;;;;;;12.13;9.33;;;19.00;99.90;;;;;;5039967;28;20296;-91
2021/08/16 11:37:59;;;;;;;10.60;9.50;;;19.00;99.90;;;;;;5040990;28;20230;-91
2021/08/16 11:40:30;;;;;;;11.20;9.10;;;19.00;99.90;;;;;;5039757;28;20437;-91
2021/08/16 11:43:06;;;;;;;11.40;9.00;;;19.00;99.90;;;;;;5040700;28;20299;-91
2021/08/16 11:45:39;;;;;;;10.33;9.30;;;19.00;99.90;;;;;;5041153;28;20271;-91
2021/08/16 11:48:13;;;;;;;11.17;9.90;;;19.00;99.90;;;;;;5025423;28;20208;-91
2021/08/16 11:50:45;;;;;;;10.33;9.33;;;19.00;99.90;;;;;;5045987;28;20204;-91
2021/08/16 11:53:17;;;;;;;12.17;10.33;;;18.90;99.90;;;;;;5040025;28;20217;-91
2021/08/16 11:55:48;;;;;;;12.00;10.40;;;18.90;99.90;;;;;;5035824;28;20201;-90
2021/08/16 11:58:20;;;;;;;11.27;10.17;;;19.00;99.90;;;;;;5037414;28;20202;-91
2021/08/16 12:00:52;;;;;;;11.20;9.17;;;19.00;99.90;;;;;;5036608;28;20194;-92
2021/08/16 12:03:27;;;;;;;10.57;9.47;;;19.00;99.90;;;;;;5035649;28;20213;-90
2021/08/16 12:06:00;;;;;;;10.20;9.20;;;19.00;99.90;;;;;;5011857;28;20293;-90
2021/08/16 12:08:32;;;;;;;11.50;10.30;;;18.90;99.90;;;;;;5020015;28;20240;-91
2021/08/16 12:11:11;;;;;;;12.40;10.10;;;18.80;99.90;;;;;;5018864;28;20241;-90
2021/08/16 12:13:43;;;;;;;11.00;9.83;;;18.70;99.90;;;;;;5018277;28;20310;-91
2021/08/16 12:16:17;;;;;;;11.00;9.90;;;18.80;99.90;;;;;;5004423;28;20210;-91
2021/08/16 12:18:59;;;;;;;11.17;9.83;;;18.80;99.90;;;;;;5017891;28;20205;-91
2021/08/16 12:21:31;;;;;;;12.50;10.20;;;18.80;99.90;;;;;;5019593;28;20206;-91
2021/08/16 12:24:04;;;;;;;13.77;10.53;;;18.70;99.90;;;;;;5018387;28;20229;-91
2021/08/16 12:26:38;;;;;;;11.73;10.07;;;18.70;99.90;;;;;;5005042;28;20697;-92
2021/08/16 12:29:19;;;;;;;11.80;10.60;;;18.80;99.90;;;;;;5035668;28;20193;-90
2021/08/16 12:31:51;;;;;;;12.33;10.77;;;18.70;99.90;;;;;;5035701;28;20257;-93
2021/08/16 12:34:35;;;;;;;13.43;10.53;;;18.70;99.90;;;;;;5033387;28;20232;-92
2021/08/16 12:37:06;;;;;;;12.10;9.83;;;18.80;99.90;;;;;;5002783;28;20283;-93
2021/08/16 12:39:38;;;;;;;12.37;10.13;;;18.70;99.90;;;;;;5019218;28;20239;-92
2021/08/16 12:42:10;;;;;;;11.23;9.90;;;18.70;99.90;;;;;;5017246;28;20649;-92
2021/08/16 12:44:53;;;;;;;14.47;10.47;;;18.70;99.90;;;;;;5017457;28;20553;-92
2021/08/16 12:47:32;;;;;;;11.23;10.03;;;18.60;99.90;;;;;;5000163;28;20217;-92
2021/08/16 12:50:08;;;;;;;11.53;10.33;;;18.50;99.90;;;;;;5016506;28;20251;-91
2021/08/16 12:52:40;;;;;;;11.90;9.93;;;18.50;99.90;;;;;;5016743;28;20209;-92
2021/08/16 12:55:13;;;;;;;12.30;11.00;;;18.40;99.90;;;;;;5017513;28;20715;-92
2021/08/16 12:57:44;;;;;;;11.77;10.20;;;18.30;99.90;;;;;;5001333;28;20652;-95
2021/08/16 13:00:16;;;;;;;11.13;9.97;;;18.30;99.90;;;;;;5025963;28;20219;-95
2021/08/16 13:02:49;;;;;;;13.97;10.23;;;18.30;99.90;;;;;;5036295;28;20662;-92
2021/08/16 13:05:23;;;;;;;13.47;10.90;;;18.30;99.90;;;;;;5037986;28;20658;-92
2021/08/16 13:07:53;;;;;;;14.17;11.03;;;18.40;99.90;;;;;;5037033;28;20312;-92
2021/08/16 13:10:25;;;;;;;12.63;11.20;;;18.30;99.90;;;;;;5039343;28;20209;-91
2021/08/16 13:12:58;;;;;;;12.17;10.87;;;18.30;99.90;;;;;;5040787;28;20295;-92
2021/08/16 13:15:31;;;;;;;13.13;10.83;;;18.30;99.90;;;;;;5040684;28;20374;-92
2021/08/16 13:18:06;;;;;;;11.27;10.07;;;18.30;99.90;;;;;;5040879;28;20205;-92
2021/08/16 13:20:42;;;;;;;11.83;10.57;;;18.30;99.90;;;;;;5040245;28;20200;-91
2021/08/16 13:23:14;;;;;;;14.47;11.00;;;18.30;99.90;;;;;;5040816;28;20205;-91
2021/08/16 13:25:45;;;;;;;13.40;11.70;;;18.20;99.90;;;;;;5040365;28;20204;-91
2021/08/16 13:28:17;;;;;;;13.03;11.17;;;18.20;99.90;;;;;;5034405;28;20283;-92
2021/08/16 13:30:48;;;;;;;14.10;11.90;;;18.20;99.90;;;;;;5018831;28;20240;-90
2021/08/16 13:33:20;;;;;;;13.43;10.93;;;18.10;99.90;;;;;;5003872;28;20233;-92
2021/08/16 13:35:53;;;;;;;14.60;12.03;;;18.10;99.90;;;;;;5020495;28;20214;-91
2021/08/16 13:38:24;;;;;;;13.50;12.00;;;18.00;99.90;;;;;;5020025;28;20220;-91
2021/08/16 13:40:56;;;;;;;16.47;12.50;;;18.00;99.90;;;;;;5019647;28;20205;-92
2021/08/16 13:43:27;;;;;;;13.20;11.80;;;18.00;99.90;;;;;;5020218;28;20229;-91
2021/08/16 13:45:58;;;;;;;13.63;11.80;;;18.00;99.90;;;;;;5029357;28;20673;-92
2021/08/16 13:48:29;;;;;;;15.53;12.27;;;18.00;99.90;;;;;;5043565;28;20660;-91